sensor_id;sensor_type;location;lat;lon;timestamp;P1;durP1;ratioP1;P2;durP2;ratioP2
30519;SDS011;17300;50.374;8.006;2024-01-30T06:19:50;7.33;;;6.40;;
30519;SDS011;17300;50.374;8.006;2024-01-30T06:22:17;7.53;;;6.73;;
30519;SDS011;17300;50.374;8.006;2024-01-30T06:24:44;8.50;;;7.13;;
30519;SDS011;17300;50.374;8.006;2024-01-30T06:27:13;7.47;;;6.67;;
30519;SDS011;17300;50.374;8.006;2024-01-30T06:29:39;8.20;;;7.33;;
30519;SDS011;17300;50.374;8.006;2024-01-30T06:32:06;8.93;;;7.07;;
30519;SDS011;17300;50.374;8.006;2024-01-30T06:34:33;7.73;;;6.60;;
30519;SDS011;17300;50.374;8.006;2024-01-30T06:37:01;7.90;;;7.10;;
30519;SDS011;17300;50.374;8.006;2024-01-30T06:39:27;8.40;;;7.17;;
30519;SDS011;17300;50.374;8.006;2024-01-30T06:41:54;7.90;;;7.17;;
30519;SDS011;17300;50.374;8.006;2024-01-30T06:44:21;8.77;;;7.17;;
30519;SDS011;17300;50.374;8.006;2024-01-30T06:46:47;8.33;;;7.43;;
30519;SDS011;17300;50.374;8.006;2024-01-30T06:49:14;8.87;;;7.53;;
30519;SDS011;17300;50.374;8.006;2024-01-30T06:51:55;7.97;;;7.17;;
30519;SDS011;17300;50.374;8.006;2024-01-30T06:54:24;8.20;;;7.40;;
30519;SDS011;17300;50.374;8.006;2024-01-30T06:56:51;7.93;;;7.13;;
30519;SDS011;17300;50.374;8.006;2024-01-30T06:59:18;8.23;;;7.20;;
30519;SDS011;17300;50.374;8.006;2024-01-30T07:01:44;8.47;;;7.63;;
30519;SDS011;17300;50.374;8.006;2024-01-30T07:04:11;8.40;;;7.53;;
30519;SDS011;17300;50.374;8.006;2024-01-30T07:06:38;8.60;;;7.70;;
30519;SDS011;17300;50.374;8.006;2024-01-30T07:09:07;7.70;;;6.90;;
30519;SDS011;17300;50.374;8.006;2024-01-30T07:11:36;8.80;;;7.90;;
30519;SDS011;17300;50.374;8.006;2024-01-30T07:17:13;8.10;;;7.30;;
30519;SDS011;17300;50.374;8.006;2024-01-30T07:19:46;7.50;;;6.83;;
30519;SDS011;17300;50.374;8.006;2024-01-30T07:22:17;8.03;;;7.30;;
30519;SDS011;17300;50.374;8.006;2024-01-30T07:24:48;8.30;;;7.50;;
30519;SDS011;17300;50.374;8.006;2024-01-30T07:27:22;7.80;;;7.00;;
30519;SDS011;17300;50.374;8.006;2024-01-30T07:29:49;9.40;;;8.40;;
30519;SDS011;17300;50.374;8.006;2024-01-30T07:32:15;9.17;;;8.00;;
30519;SDS011;17300;50.374;8.006;2024-01-30T07:34:42;8.80;;;7.90;;
30519;SDS011;17300;50.374;8.006;2024-01-30T07:37:09;9.07;;;7.97;;
30519;SDS011;17300;50.374;8.006;2024-01-30T07:42:54;8.50;;;7.37;;
30519;SDS011;17300;50.374;8.006;2024-01-30T07:51:45;8.53;;;7.50;;
30519;SDS011;17300;50.374;8.006;2024-01-30T07:54:15;8.43;;;7.63;;
30519;SDS011;17300;50.374;8.006;2024-01-30T07:56:42;9.03;;;8.13;;
30519;SDS011;17300;50.374;8.006;2024-01-30T07:59:12;8.40;;;7.53;;
30519;SDS011;17300;50.374;8.006;2024-01-30T08:01:53;7.87;;;7.07;;
30519;SDS011;17300;50.374;8.006;2024-01-30T08:04:20;8.47;;;7.57;;
30519;SDS011;17300;50.374;8.006;2024-01-30T08:06:47;8.07;;;7.27;;
30519;SDS011;17300;50.374;8.006;2024-01-30T08:09:14;9.03;;;7.20;;
30519;SDS011;17300;50.374;8.006;2024-01-30T08:11:40;10.63;;;7.30;;
30519;SDS011;17300;50.374;8.006;2024-01-30T08:14:07;8.03;;;7.10;;
30519;SDS011;17300;50.374;8.006;2024-01-30T08:16:35;8.30;;;7.30;;
30519;SDS011;17300;50.374;8.006;2024-01-30T08:19:02;8.47;;;7.67;;
30519;SDS011;17300;50.374;8.006;2024-01-30T08:21:29;8.80;;;7.90;;
30519;SDS011;17300;50.374;8.006;2024-01-30T08:24:01;8.20;;;7.40;;
30519;SDS011;17300;50.374;8.006;2024-01-30T08:26:28;8.30;;;7.50;;
30519;SDS011;17300;50.374;8.006;2024-01-30T08:28:54;8.80;;;7.90;;
30519;SDS011;17300;50.374;8.006;2024-01-30T08:31:30;10.20;;;7.20;;
30519;SDS011;17300;50.374;8.006;2024-01-30T08:33:58;8.17;;;7.33;;
30519;SDS011;17300;50.374;8.006;2024-01-30T08:36:25;9.77;;;8.77;;
30519;SDS011;17300;50.374;8.006;2024-01-30T08:38:54;9.87;;;8.93;;
30519;SDS011;17300;50.374;8.006;2024-01-30T08:41:20;9.87;;;8.87;;
30519;SDS011;17300;50.374;8.006;2024-01-30T08:43:47;8.77;;;7.70;;
30519;SDS011;17300;50.374;8.006;2024-01-30T08:46:17;8.53;;;7.73;;
30519;SDS011;17300;50.374;8.006;2024-01-30T08:48:43;8.20;;;7.40;;
30519;SDS011;17300;50.374;8.006;2024-01-30T08:51:12;7.93;;;7.17;;
30519;SDS011;17300;50.374;8.006;2024-01-30T08:53:40;10.57;;;8.03;;
30519;SDS011;17300;50.374;8.006;2024-01-30T08:56:07;9.03;;;8.13;;
30519;SDS011;17300;50.374;8.006;2024-01-30T08:58:34;8.40;;;7.60;;
30519;SDS011;17300;50.374;8.006;2024-01-30T09:01:15;8.50;;;7.70;;
30519;SDS011;17300;50.374;8.006;2024-01-30T09:13:07;8.43;;;7.67;;
30519;SDS011;17300;50.374;8.006;2024-01-30T09:21:25;8.67;;;7.77;;
30519;SDS011;17300;50.374;8.006;2024-01-30T09:30:31;8.27;;;7.47;;
30519;SDS011;17300;50.374;8.006;2024-01-30T09:54:10;8.10;;;7.30;;
30519;SDS011;17300;50.374;8.006;2024-01-30T10:14:48;8.53;;;7.73;;
30519;SDS011;17300;50.374;8.006;2024-01-30T10:21:01;8.60;;;7.70;;
30519;SDS011;17300;50.374;8.006;2024-01-30T10:44:09;8.37;;;7.57;;
30519;SDS011;17300;50.374;8.006;2024-01-30T10:46:40;9.70;;;8.80;;
30519;SDS011;17300;50.374;8.006;2024-01-30T10:49:18;9.50;;;8.40;;
30519;SDS011;17300;50.374;8.006;2024-01-30T10:52:02;8.73;;;7.93;;
30519;SDS011;17300;50.374;8.006;2024-01-30T11:05:58;8.90;;;8.00;;
30519;SDS011;17300;50.374;8.006;2024-01-30T11:09:30;8.30;;;7.50;;
30519;SDS011;17300;50.374;8.006;2024-01-30T11:12:14;8.97;;;8.17;;
30519;SDS011;17300;50.374;8.006;2024-01-30T11:15:15;9.40;;;7.50;;
30519;SDS011;17300;50.374;8.006;2024-01-30T11:52:59;7.90;;;7.20;;
30519;SDS011;17300;50.374;8.006;2024-01-30T11:58:48;7.77;;;7.17;;
30519;SDS011;17300;50.374;8.006;2024-01-30T12:01:29;8.43;;;7.73;;
30519;SDS011;17300;50.374;8.006;2024-01-30T12:03:58;8.63;;;7.83;;
30519;SDS011;17300;50.374;8.006;2024-01-30T12:06:25;8.40;;;7.70;;
30519;SDS011;17300;50.374;8.006;2024-01-30T12:09:06;8.57;;;7.87;;
30519;SDS011;17300;50.374;8.006;2024-01-30T12:11:43;8.80;;;8.00;;
30519;SDS011;17300;50.374;8.006;2024-01-30T12:14:13;8.63;;;7.93;;
30519;SDS011;17300;50.374;8.006;2024-01-30T12:16:47;9.00;;;8.20;;
30519;SDS011;17300;50.374;8.006;2024-01-30T12:19:22;9.27;;;8.37;;
30519;SDS011;17300;50.374;8.006;2024-01-30T12:21:53;8.93;;;8.13;;
30519;SDS011;17300;50.374;8.006;2024-01-30T12:24:30;8.37;;;7.67;;
30519;SDS011;17300;50.374;8.006;2024-01-30T12:26:58;8.23;;;7.43;;
30519;SDS011;17300;50.374;8.006;2024-01-30T12:29:25;8.93;;;8.20;;
30519;SDS011;17300;50.374;8.006;2024-01-30T12:31:52;8.93;;;8.13;;
30519;SDS011;17300;50.374;8.006;2024-01-30T12:34:21;8.43;;;7.63;;
30519;SDS011;17300;50.374;8.006;2024-01-30T12:36:48;8.57;;;7.87;;
30519;SDS011;17300;50.374;8.006;2024-01-30T12:39:15;8.23;;;7.53;;
30519;SDS011;17300;50.374;8.006;2024-01-30T12:41:41;7.70;;;7.00;;
30519;SDS011;17300;50.374;8.006;2024-01-30T12:44:08;8.70;;;7.90;;
30519;SDS011;17300;50.374;8.006;2024-01-30T12:46:35;7.70;;;7.00;;
30519;SDS011;17300;50.374;8.006;2024-01-30T12:49:02;8.00;;;7.30;;
30519;SDS011;17300;50.374;8.006;2024-01-30T12:51:30;7.97;;;7.27;;
30519;SDS011;17300;50.374;8.006;2024-01-30T12:54:03;8.60;;;7.73;;
30519;SDS011;17300;50.374;8.006;2024-01-30T12:56:31;8.93;;;8.13;;
30519;SDS011;17300;50.374;8.006;2024-01-30T12:59:01;8.53;;;7.83;;
30519;SDS011;17300;50.374;8.006;2024-01-30T13:01:28;8.90;;;8.10;;
30519;SDS011;17300;50.374;8.006;2024-01-30T13:07:23;7.37;;;6.67;;
30519;SDS011;17300;50.374;8.006;2024-01-30T13:09:50;8.63;;;7.83;;
30519;SDS011;17300;50.374;8.006;2024-01-30T13:12:17;8.93;;;8.07;;
30519;SDS011;17300;50.374;8.006;2024-01-30T13:14:44;9.20;;;8.40;;
30519;SDS011;17300;50.374;8.006;2024-01-30T13:27:04;8.03;;;7.33;;
30519;SDS011;17300;50.374;8.006;2024-01-30T13:29:44;8.97;;;8.17;;
30519;SDS011;17300;50.374;8.006;2024-01-30T13:35:11;14.77;;;13.33;;
30519;SDS011;17300;50.374;8.006;2024-01-30T13:37:47;26.63;;;23.80;;
30519;SDS011;17300;50.374;8.006;2024-01-30T13:43:39;18.33;;;16.43;;
30519;SDS011;17300;50.374;8.006;2024-01-30T13:52:50;10.70;;;9.70;;
30519;SDS011;17300;50.374;8.006;2024-01-30T13:55:17;9.20;;;8.40;;
30519;SDS011;17300;50.374;8.006;2024-01-30T13:57:44;44.17;;;34.07;;
30519;SDS011;17300;50.374;8.006;2024-01-30T14:00:12;27.77;;;22.73;;
30519;SDS011;17300;50.374;8.006;2024-01-30T14:02:41;16.00;;;14.30;;
30519;SDS011;17300;50.374;8.006;2024-01-30T14:05:09;12.47;;;11.27;;
30519;SDS011;17300;50.374;8.006;2024-01-30T14:07:47;10.80;;;9.80;;
30519;SDS011;17300;50.374;8.006;2024-01-30T14:10:39;9.20;;;8.30;;
30519;SDS011;17300;50.374;8.006;2024-01-30T14:17:06;8.47;;;7.60;;
30519;SDS011;17300;50.374;8.006;2024-01-30T14:19:33;10.07;;;9.17;;
30519;SDS011;17300;50.374;8.006;2024-01-30T14:22:01;9.30;;;8.50;;
30519;SDS011;17300;50.374;8.006;2024-01-30T14:24:31;9.17;;;8.27;;
30519;SDS011;17300;50.374;8.006;2024-01-30T14:26:57;9.73;;;8.83;;
30519;SDS011;17300;50.374;8.006;2024-01-30T14:29:24;9.13;;;8.33;;
30519;SDS011;17300;50.374;8.006;2024-01-30T14:31:51;9.43;;;8.53;;
30519;SDS011;17300;50.374;8.006;2024-01-30T14:34:21;9.60;;;8.70;;
30519;SDS011;17300;50.374;8.006;2024-01-30T14:36:47;8.77;;;7.97;;
30519;SDS011;17300;50.374;8.006;2024-01-30T14:49:51;6.53;;;5.93;;
30519;SDS011;17300;50.374;8.006;2024-01-30T14:52:17;8.13;;;7.47;;
30519;SDS011;17300;50.374;8.006;2024-01-30T14:54:44;8.80;;;8.00;;
30519;SDS011;17300;50.374;8.006;2024-01-30T14:57:11;9.70;;;8.80;;
30519;SDS011;17300;50.374;8.006;2024-01-30T14:59:39;8.40;;;7.60;;
30519;SDS011;17300;50.374;8.006;2024-01-30T15:02:06;9.30;;;8.40;;
30519;SDS011;17300;50.374;8.006;2024-01-30T15:04:33;9.70;;;8.73;;
30519;SDS011;17300;50.374;8.006;2024-01-30T15:07:01;9.07;;;8.17;;
30519;SDS011;17300;50.374;8.006;2024-01-30T15:09:28;9.00;;;8.17;;
30519;SDS011;17300;50.374;8.006;2024-01-30T15:11:54;8.63;;;7.83;;
30519;SDS011;17300;50.374;8.006;2024-01-30T15:14:21;9.93;;;8.90;;
30519;SDS011;17300;50.374;8.006;2024-01-30T15:16:49;10.50;;;8.90;;
30519;SDS011;17300;50.374;8.006;2024-01-30T15:22:58;8.97;;;8.17;;
30519;SDS011;17300;50.374;8.006;2024-01-30T15:26:07;8.87;;;7.87;;
30519;SDS011;17300;50.374;8.006;2024-01-30T15:31:54;9.23;;;8.33;;
30519;SDS011;17300;50.374;8.006;2024-01-30T16:49:12;10.27;;;8.70;;
30519;SDS011;17300;50.374;8.006;2024-01-30T16:57:58;9.27;;;8.37;;
30519;SDS011;17300;50.374;8.006;2024-01-30T17:00:27;9.73;;;8.80;;
30519;SDS011;17300;50.374;8.006;2024-01-30T17:03:21;10.53;;;9.43;;
30519;SDS011;17300;50.374;8.006;2024-01-30T17:06:26;11.43;;;9.37;;
30519;SDS011;17300;50.374;8.006;2024-01-30T17:12:56;10.43;;;9.20;;
30519;SDS011;17300;50.374;8.006;2024-01-30T17:22:15;13.97;;;11.07;;
30519;SDS011;17300;50.374;8.006;2024-01-30T17:24:45;15.43;;;12.70;;
30519;SDS011;17300;50.374;8.006;2024-01-30T17:27:12;18.70;;;14.47;;
30519;SDS011;17300;50.374;8.006;2024-01-30T17:30:22;27.10;;;17.67;;
30519;SDS011;17300;50.374;8.006;2024-01-30T17:32:55;22.07;;;15.43;;
30519;SDS011;17300;50.374;8.006;2024-01-30T17:35:23;16.57;;;12.37;;
30519;SDS011;17300;50.374;8.006;2024-01-30T17:37:51;13.30;;;11.10;;
30519;SDS011;17300;50.374;8.006;2024-01-30T17:40:18;11.63;;;10.07;;
30519;SDS011;17300;50.374;8.006;2024-01-30T17:42:48;11.27;;;10.17;;
30519;SDS011;17300;50.374;8.006;2024-01-30T17:45:15;11.30;;;10.20;;
30519;SDS011;17300;50.374;8.006;2024-01-30T17:47:42;12.33;;;11.00;;
30519;SDS011;17300;50.374;8.006;2024-01-30T17:50:26;12.07;;;10.77;;
30519;SDS011;17300;50.374;8.006;2024-01-30T17:53:46;9.90;;;8.90;;
30519;SDS011;17300;50.374;8.006;2024-01-30T17:59:46;8.07;;;7.27;;
30519;SDS011;17300;50.374;8.006;2024-01-30T18:03:08;9.13;;;7.27;;
30519;SDS011;17300;50.374;8.006;2024-01-30T21:06:23;17.07;;;12.57;;
30519;SDS011;17300;50.374;8.006;2024-01-30T21:09:10;21.33;;;14.40;;
30519;SDS011;17300;50.374;8.006;2024-01-30T21:12:09;14.70;;;11.33;;
30519;SDS011;17300;50.374;8.006;2024-01-30T21:14:45;12.83;;;10.43;;
30519;SDS011;17300;50.374;8.006;2024-01-30T21:17:12;11.80;;;9.33;;
30519;SDS011;17300;50.374;8.006;2024-01-30T21:19:39;12.53;;;10.10;;
30519;SDS011;17300;50.374;8.006;2024-01-30T21:22:07;15.90;;;11.37;;
30519;SDS011;17300;50.374;8.006;2024-01-30T21:24:34;16.50;;;11.90;;
30519;SDS011;17300;50.374;8.006;2024-01-30T21:27:00;14.63;;;11.20;;
30519;SDS011;17300;50.374;8.006;2024-01-30T21:29:27;13.87;;;10.00;;
30519;SDS011;17300;50.374;8.006;2024-01-30T21:31:54;21.43;;;14.60;;
30519;SDS011;17300;50.374;8.006;2024-01-30T21:34:20;22.10;;;16.10;;
30519;SDS011;17300;50.374;8.006;2024-01-30T21:36:47;17.30;;;13.07;;
30519;SDS011;17300;50.374;8.006;2024-01-30T21:39:15;16.20;;;11.30;;
30519;SDS011;17300;50.374;8.006;2024-01-30T21:41:42;10.87;;;9.17;;
30519;SDS011;17300;50.374;8.006;2024-01-30T21:44:09;10.50;;;8.93;;
30519;SDS011;17300;50.374;8.006;2024-01-30T21:46:35;9.30;;;8.20;;
30519;SDS011;17300;50.374;8.006;2024-01-30T21:49:02;8.17;;;7.33;;
30519;SDS011;17300;50.374;8.006;2024-01-30T21:51:29;8.00;;;7.20;;
30519;SDS011;17300;50.374;8.006;2024-01-30T21:53:55;7.50;;;6.80;;
30519;SDS011;17300;50.374;8.006;2024-01-30T21:56:23;6.90;;;6.20;;
30519;SDS011;17300;50.374;8.006;2024-01-30T21:58:50;6.73;;;5.50;;
30519;SDS011;17300;50.374;8.006;2024-01-30T22:01:17;5.60;;;5.10;;
30519;SDS011;17300;50.374;8.006;2024-01-30T22:03:43;6.07;;;5.17;;
30519;SDS011;17300;50.374;8.006;2024-01-30T22:06:10;5.03;;;3.53;;
30519;SDS011;17300;50.374;8.006;2024-01-30T22:08:38;3.53;;;3.20;;
30519;SDS011;17300;50.374;8.006;2024-01-30T22:11:06;3.40;;;3.00;;
30519;SDS011;17300;50.374;8.006;2024-01-30T22:13:35;3.27;;;2.87;;
30519;SDS011;17300;50.374;8.006;2024-01-30T22:16:02;3.63;;;2.80;;
30519;SDS011;17300;50.374;8.006;2024-01-30T22:18:29;2.93;;;2.63;;
30519;SDS011;17300;50.374;8.006;2024-01-30T22:20:56;3.70;;;2.63;;
30519;SDS011;17300;50.374;8.006;2024-01-30T22:23:22;2.90;;;2.43;;
30519;SDS011;17300;50.374;8.006;2024-01-30T22:25:49;3.03;;;2.43;;
30519;SDS011;17300;50.374;8.006;2024-01-30T22:28:16;3.17;;;2.23;;
30519;SDS011;17300;50.374;8.006;2024-01-30T22:30:44;2.50;;;2.00;;
30519;SDS011;17300;50.374;8.006;2024-01-30T22:33:11;2.77;;;2.10;;
30519;SDS011;17300;50.374;8.006;2024-01-30T22:35:38;2.43;;;2.10;;
30519;SDS011;17300;50.374;8.006;2024-01-30T22:38:04;3.73;;;2.30;;
30519;SDS011;17300;50.374;8.006;2024-01-30T22:40:32;2.50;;;2.27;;
30519;SDS011;17300;50.374;8.006;2024-01-30T22:42:59;3.83;;;2.50;;
30519;SDS011;17300;50.374;8.006;2024-01-30T22:45:26;2.70;;;2.17;;
30519;SDS011;17300;50.374;8.006;2024-01-30T22:47:54;2.20;;;2.00;;
30519;SDS011;17300;50.374;8.006;2024-01-30T22:50:21;2.40;;;1.90;;
30519;SDS011;17300;50.374;8.006;2024-01-30T22:52:48;2.57;;;1.70;;
30519;SDS011;17300;50.374;8.006;2024-01-30T22:55:15;2.90;;;1.90;;
30519;SDS011;17300;50.374;8.006;2024-01-30T22:57:41;2.43;;;1.77;;
30519;SDS011;17300;50.374;8.006;2024-01-30T23:00:08;2.37;;;1.97;;
30519;SDS011;17300;50.374;8.006;2024-01-30T23:02:39;2.40;;;1.93;;
30519;SDS011;17300;50.374;8.006;2024-01-30T23:05:08;2.30;;;2.10;;
30519;SDS011;17300;50.374;8.006;2024-01-30T23:07:35;2.63;;;1.97;;
30519;SDS011;17300;50.374;8.006;2024-01-30T23:10:05;2.20;;;2.00;;
30519;SDS011;17300;50.374;8.006;2024-01-30T23:12:34;2.20;;;2.00;;
30519;SDS011;17300;50.374;8.006;2024-01-30T23:15:00;2.60;;;2.03;;
30519;SDS011;17300;50.374;8.006;2024-01-30T23:17:27;2.27;;;2.07;;
30519;SDS011;17300;50.374;8.006;2024-01-30T23:19:54;2.63;;;2.17;;
30519;SDS011;17300;50.374;8.006;2024-01-30T23:22:22;2.83;;;2.30;;
30519;SDS011;17300;50.374;8.006;2024-01-30T23:24:49;2.63;;;2.03;;
30519;SDS011;17300;50.374;8.006;2024-01-30T23:27:16;3.67;;;2.73;;
30519;SDS011;17300;50.374;8.006;2024-01-30T23:29:43;4.33;;;2.93;;
30519;SDS011;17300;50.374;8.006;2024-01-30T23:32:10;3.40;;;2.97;;
30519;SDS011;17300;50.374;8.006;2024-01-30T23:34:36;3.53;;;3.23;;
30519;SDS011;17300;50.374;8.006;2024-01-30T23:37:03;3.00;;;2.57;;
30519;SDS011;17300;50.374;8.006;2024-01-30T23:39:32;2.83;;;2.50;;
30519;SDS011;17300;50.374;8.006;2024-01-30T23:41:58;2.67;;;2.47;;
30519;SDS011;17300;50.374;8.006;2024-01-30T23:44:25;2.87;;;2.47;;
30519;SDS011;17300;50.374;8.006;2024-01-30T23:46:52;2.60;;;2.40;;
30519;SDS011;17300;50.374;8.006;2024-01-30T23:49:19;2.60;;;2.30;;
30519;SDS011;17300;50.374;8.006;2024-01-30T23:51:46;2.67;;;2.40;;
30519;SDS011;17300;50.374;8.006;2024-01-30T23:54:13;2.40;;;2.20;;
30519;SDS011;17300;50.374;8.006;2024-01-30T23:56:41;2.50;;;2.17;;
30519;SDS011;17300;50.374;8.006;2024-01-30T23:59:09;2.63;;;2.30;;
